Weather observations for the past three days for
Tunica, Tunica Municipal Airport
Metric (Imperial)
Date Time (cdt) Wind (kph) Vis. (km) Weather Sky Cond. Temperature (ºC) Relative Humidity Wind Chill (°C) Heat Index (°C) Pressure Precipitation (cm)
Air Dwpt 6 hour altimeter (cm) sea level (mb) 1 hr 3 hr 6 hr
Max. Min.
09 13:55 Calm 16.09 A Few Clouds FEW370 28.9 15.4 44% 29 75.84 0.0
09 13:35 Vrbl 6 16.09 A Few Clouds FEW370 27.1 16.5 52% 28 75.84 0.0
09 13:15 Calm 16.09 Fair CLR 26.3 15.4 51% 27 75.84 0.0
09 12:55 Vrbl 6 16.09 A Few Clouds FEW270 25.8 16.8 26.4 13.8 58% 27 75.87 0.0
09 12:35 SE 9 16.09 Fair CLR 25.5 16 56% 26 75.87 0.0
09 11:55 Vrbl 7 16.09 Fair CLR 26.3 17.3 58% 27 75.87 0.0
09 11:35 Calm 16.09 Fair CLR 25.9 16.3 56% 27 75.87 0.0
09 11:15 N 11 16.09 Fair CLR 25 16.8 60% 26 75.87 0.0
09 10:55 Calm 16.09 Fair CLR 25.7 16.7 58% 27 75.87 0.0
09 10:35 N 7 16.09 Fair CLR 25.3 17.6 62% 26 75.84 0.0
09 10:15 Vrbl 7 16.09 Fair CLR 25.1 17.3 62% 26 75.84 0.0
09 09:55 NW 9 16.09 Fair CLR 23.5 17.8 70% 75.84 0.0
09 09:35 W 6 16.09 Fair CLR 22.6 18.4 77% 75.84 0.0
09 09:15 SW 6 16.09 Fair CLR 20.7 18.3 86% 75.84 0.0
09 08:55 SW 7 16.09 Fair CLR 19.9 18.1 89% 75.87 0.0
09 08:35 SW 9 16.09 Fair CLR 19 17.7 92% 75.84 0.0
09 08:15 S 13 16.09 Fair CLR 17.8 17.3 97% 75.87 0.0
09 07:55 S 15 16.09 Fair CLR 16.1 16.1 100% 75.84 0.0
09 07:35 S 11 16.09 Fair CLR 15.4 15.4 100% 75.84 0.0
09 07:15 S 11 16.09 Fair CLR 14.3 14.3 100% 75.84 0.0
09 06:55 S 7 14.48 Fair CLR 13.4 13.4 15 12.4 100% 75.82 0.0
09 06:35 S 6 14.48 Fair CLR 12.9 12.9 100% 75.82 0.0
09 06:15 Calm 12.87 Fair CLR 12.6 12.6 100% 75.79 0.0
09 05:55 Calm 14.48 Fair CLR 12.4 12.4 100% 75.79 0.0
09 05:35 Calm 16.09 Fair CLR 12.8 12.8 100% 75.79 0.0
09 05:15 Calm 16.09 Fair CLR 12.8 12.8 100% 75.77 0.0
09 04:55 Calm 16.09 Fair CLR 12.5 12.5 100% 75.77 0.0
09 04:35 Calm 16.09 Fair CLR 13.2 13.2 100% 75.77 0.0
09 04:15 Calm 16.09 Fair CLR 13.1 13.1 100% 75.79 0.0
09 03:55 NE 6 16.09 Fair CLR 13.5 13.5 100% 75.74 0.0
09 03:35 Calm 16.09 Fair CLR 14.1 14.1 100% 75.74 0.0
09 03:15 Calm 16.09 Fair CLR 14.5 14.5 100% 75.69 0.0
09 02:55 S 9 16.09 Fair CLR 14.2 14.2 100% 75.69 0.0
09 02:35 S 11 16.09 Fair CLR 14.8 14.8 100% 75.69 0.0
09 02:15 S 13 16.09 Fair CLR 14.5 14.5 100% 75.67 0.0
09 01:55 S 11 16.09 A Few Clouds FEW150 14.7 14.7 100% 75.72 0.0
09 01:35 S 11 16.09 Partly Cloudy FEW150 SCT170 14.9 14.9 100% 75.72 0.0
09 01:15 S 13 16.09 Mostly Cloudy BKN170 BKN190 14.6 14.6 100% 75.74 0.0
09 00:55 S 7 16.09 A Few Clouds FEW190 13.9 13.9 21.3 13.7 100% 75.82 0.0
09 00:35 S 7 16.09 Fair CLR 14.8 14.5 98% 75.84 0.0
09 00:15 S 9 16.09 A Few Clouds FEW210 14 14 100% 75.82 0.0
08 23:55 Calm 16.09 A Few Clouds FEW210 15.1 14.3 95% 75.9 0.0
08 23:35 S 7 16.09 Fair CLR 15.6 14.6 94% 75.9 0.0
08 23:15 S 7 16.09 Fair CLR 15 14.5 97% 75.87 0.0
08 22:55 S 11 16.09 Fair CLR 15.7 14.7 94% 75.84 0.0
08 22:35 S 13 16.09 Fair CLR 16.3 14.6 90% 75.82 0.0
08 22:15 S 15 16.09 Fair CLR 16.7 14.7 88% 75.82 0.0
08 21:55 S 13 16.09 Fair CLR 17.2 14.6 85% 75.84 0.0
08 21:35 S 15 16.09 Fair CLR 17.3 14.6 84% 75.84 0.0
08 21:15 S 15 16.09 Fair CLR 17.5 14.6 83% 75.82 0.0
08 20:55 SE 15 16.09 Fair CLR 17.2 14.7 85% 75.82 0.0
08 20:35 SE 13 16.09 Fair CLR 17.1 14.2 83% 75.79 0.0
08 20:15 S 11 14.48 Fair CLR 17.4 14.1 81% 75.82 0.0
08 19:55 S 9 16.09 Fair CLR 18.5 14.4 77% 75.82 0.0
08 19:35 S 15 16.09 Fair CLR 20 13.6 67% 75.79 0.0
08 19:15 S 15 16.09 Fair CLR 20.9 13.2 62% 75.79 0.0
08 18:55 S 20 14.48 Fair CLR 21.5 13 24.4 21.5 59% 75.79 0.0
08 18:35 S 22 14.48 Fair CLR 22.2 12.7 55% 75.77 0.0
08 18:15 S 17 14.48 Fair CLR 23 12 50% 75.79 0.0
08 17:55 S 20 14.48 Fair CLR 23.7 12.3 49% 75.79 0.0
08 17:35 S 19 16.09 Fair CLR 23.8 12.5 49% 75.82 0.0
08 17:15 S 15 G 30 16.09 Fair CLR 24.1 10.2 42% 25 75.82 0.0
08 16:55 S 11 16.09 Fair CLR 23.9 11.7 46% 25 75.82 0.0
08 16:35 SE 17 16.09 Fair CLR 23.7 11.5 46% 75.84 0.0
08 16:15 SE 17 G 31 16.09 Fair CLR 23.6 11.2 46% 75.84 0.0
08 15:55 SE 22 16.09 Fair CLR 23.9 12 47% 25 75.87 0.0
08 15:35 S 17 16.09 Fair CLR 23.9 10.7 43% 25 75.87 0.0
08 15:15 S 17 14.48 Fair CLR 24.3 10.9 43% 25 75.9 0.0
08 14:55 SE 15 16.09 Fair CLR 23.7 12.1 48% 75.92 0.0
08 14:35 S 17 16.09 A Few Clouds FEW250 23.6 11.1 45% 75.95 0.0
08 14:15 SE 15 16.09 Partly Cloudy SCT250 23 11.2 47% 75.95 0.0
08 13:55 SE 13 16.09 A Few Clouds FEW340 22.9 10.7 46% 75.97 0.0
08 13:35 Vrbl 11 16.09 Partly Cloudy FEW240 SCT330 SCT360 22.7 9.7 44% 76 0.0
08 13:15 SE 19 16.09 Partly Cloudy FEW230 SCT350 22.3 10.4 47% 76.02 0.0
08 12:55 Vrbl 7 16.09 Partly Cloudy FEW220 SCT360 21.7 10.1 22.6 10.7 48% 76.07 0.0
08 12:35 S 15 16.09 A Few Clouds FEW250 22.6 10.6 47% 76.12 0.0
08 12:15 S 13 16.09 Partly Cloudy FEW250 SCT370 21.5 10.7 50% 76.12 0.0
08 11:55 E 9 16.09 A Few Clouds FEW250 20.9 10.9 53% 76.15 0.0
08 11:35 Vrbl 9 16.09 Fair CLR 20.8 10.7 53% 76.17 0.0
08 11:15 S 13 16.09 Fair CLR 20.7 12.1 58% 76.17 0.0
08 10:55 SE 13 16.09 Fair CLR 20.3 11.8 58% 76.23 0.0
08 10:35 SE 17 16.09 Fair CLR 20 11.4 58% 76.23 0.0
08 10:15 SE 15 16.09 Fair CLR 19.5 11.6 60% 76.2 0.0
08 09:55 SE 15 12.87 A Few Clouds FEW220 19 12.6 67% 76.25 0.0
08 09:35 SE 17 14.48 A Few Clouds FEW230 18.4 12.3 68% 76.25 0.0
08 09:15 SE 11 16.09 Mostly Cloudy BKN230 17.3 12 71% 76.3 0.0
08 08:55 SE 7 16.09 A Few Clouds FEW220 16.6 12.5 77% 76.3 0.0
08 08:35 SE 11 16.09 Fair CLR 15.6 12.3 81% 76.3 0.0
08 08:15 SE 9 16.09 A Few Clouds FEW240 14.6 11.4 81% 76.3 0.0
08 07:55 SE 6 16.09 A Few Clouds FEW240 13.1 12.5 96% 76.28 0.0
08 07:35 Calm 16.09 Fair CLR 11.9 11.9 100% 76.28 0.0
08 07:15 Calm 16.09 Fair CLR 11.3 11.3 100% 76.28 0.0
08 06:55 Calm 16.09 Fair CLR 10.3 10.3 11.6 7.4 100% 76.28 0.0
08 06:35 Calm 12.87 Fair CLR 9.6 9.6 100% 76.28 0.0
08 06:15 Calm 4.83 Fog/Mist CLR 8.3 8.3 100% 76.25 0.0
08 05:55 S 7 0.40 Fog CLR 8.3 8.3 100% 7 76.23 0.0
08 05:35 Calm 1.21 Fog/Mist CLR 9.1 9.1 100% 76.25 0.0
08 05:15 Calm 4.02 Fog/Mist CLR 9 9 100% 76.23 0.0
08 04:55 Calm 12.87 Fair CLR 9.7 9.7 100% 76.23 0.0
08 04:35 Calm 14.48 Fair CLR 9.7 9.7 100% 76.23 0.0
08 04:15 Calm 12.87 Fair CLR 9.7 9.7 100% 76.23 0.0
08 03:55 Calm 2.01 Fog/Mist CLR 9.2 9.2 100% 76.2 0.0
08 03:35 Calm 16.09 Fair CLR 10.8 10.8 100% 76.2 0.0
08 03:15 Calm 16.09 Fair CLR 10.1 10.1 100% 76.2 0.0
08 02:55 Calm 14.48 Fair CLR 11 11 100% 76.2 0.0
08 02:35 Calm 16.09 Fair CLR 10.9 10.9 100% 76.2 0.0
08 02:15 Calm 16.09 Fair CLR 11.1 11.1 100% 76.2 0.0
08 01:55 Calm 16.09 Fair CLR 10.6 10.6 100% 76.23 0.0
08 01:35 Calm 16.09 Fair CLR 11.4 11.4 100% 76.23 0.0
08 01:15 Calm 16.09 Fair CLR 11.3 11.3 100% 76.23 0.0
08 00:55 Calm 16.09 Fair CLR 12 12 18.2 11.2 100% 76.25 0.0
08 00:35 Calm 16.09 Fair CLR 11.8 11.8 100% 76.25 0.0
08 00:15 Calm 16.09 Fair CLR 12.2 12.2 100% 76.23 0.0
07 23:55 Calm 16.09 Fair CLR 12.3 12.3 100% 76.25 0.0
07 23:35 Calm 16.09 Fair CLR 12.3 12.3 100% 76.25 0.0
07 23:15 SE 6 16.09 Fair CLR 12.5 12.5 100% 76.25 0.0
07 22:55 Calm 16.09 Fair CLR 13.3 12.6 96% 76.25 0.0
07 22:35 Calm 16.09 Fair CLR 13.9 12.9 94% 76.28 0.0
07 22:15 SE 13 16.09 Fair CLR 13.2 12.2 94% 76.25 0.0
07 21:55 Calm 16.09 Fair CLR 13.8 13.2 96% 76.25 0.0
07 21:35 Calm 16.09 Fair CLR 14.1 13.3 95% 76.25 0.0
07 21:15 N 6 16.09 Fair CLR 15.4 12.9 85% 76.23 0.0
07 20:55 NE 6 16.09 Fair CLR 15.4 12.9 85% 76.2 0.0
07 20:35 NE 7 16.09 Fair CLR 15.4 13.6 89% 76.2 0.0
07 20:15 N 7 16.09 Fair CLR 15.8 13.8 88% 76.2 0.0
07 19:55 NE 6 16.09 Fair CLR 16.6 12.9 79% 76.17 0.0
07 19:35 N 6 16.09 Fair CLR 16.9 12.6 76% 76.17 0.0
07 19:15 N 6 16.09 Fair CLR 17.5 10.9 65% 76.2 0.0
07 18:55 Vrbl 9 14.48 Fair CLR 18.8 8.9 21.3 18.8 53% 76.2 0.0
07 18:35 N 7 14.48 Fair CLR 19 9.7 55% 76.17 0.0
07 18:15 N 9 14.48 Fair CLR 19.6 9.4 52% 76.2 0.0
07 17:55 Calm 16.09 Fair CLR 20.1 8.6 48% 76.2 0.0
07 17:35 N 9 16.09 Fair CLR 19.7 8.9 50% 76.17 0.0
07 17:15 N 9 16.09 Fair CLR 20.8 8.2 44% 76.17 0.0
07 16:55 N 9 16.09 Fair CLR 20.5 8.7 47% 76.17 0.0
07 16:35 Calm 14.48 Fair CLR 20.8 9.3 48% 76.2 0.0
07 16:15 Vrbl 11 16.09 Fair CLR 21.2 8.5 44% 76.17 0.0
07 15:15 N 9 16.09 Fair CLR 20.5 8.4 46% 76.23 0.0
07 14:55 N 11 16.09 Fair CLR 20.4 8.6 47% 76.23 0.0
07 14:35 NE 6 16.09 Fair CLR 20.4 9 48% 76.25 0.0
07 14:15 N 9 16.09 A Few Clouds FEW330 20.5 9.2 48% 76.28 0.0
07 13:55 NW 19 16.09 A Few Clouds FEW330 20.4 9 48% 76.28 0.0
07 13:35 N 19 16.09 A Few Clouds FEW340 19.3 9.7 54% 76.3 0.0
07 13:15 N 17 16.09 A Few Clouds FEW350 19.6 9.6 53% 76.3 0.0
07 12:55 N 19 G 30 16.09 A Few Clouds FEW280 19.4 9.9 19.4 11.4 54% 76.3 0.0 0.08
07 12:35 NW 17 16.09 Partly Cloudy FEW280 SCT340 18.9 9.6 55% 76.33 0.0
07 12:15 N 15 16.09 Partly Cloudy FEW290 SCT340 18.9 10.2 57% 76.33 0.0
07 11:55 N 11 16.09 Fair CLR 18.7 10.1 58% 76.35 0.0
07 11:35 NE 13 16.09 A Few Clouds FEW370 18.3 10.6 61% 76.35 0.0
07 11:15 N 15 16.09 A Few Clouds FEW360 17.6 10.4 63% 76.38 0.0
07 10:55 N 17 16.09 Fair CLR 17.7 10.7 64% 76.38 0.0
07 10:35 N 13 16.09 Fair CLR 17.1 11.5 70% 76.35 0.0
07 10:15 NE 19 16.09 A Few Clouds FEW310 17.1 11 68% 76.35 0.0
07 09:55 NE 17 16.09 Fair CLR 17 11.9 72% 76.38 0.0 0.03 0.08
07 09:35 N 17 16.09 Fair CLR 17.1 12 72% 76.38 0.0 0.03
07 09:15 N 13 16.09 A Few Clouds FEW300 17 12.5 75% 76.38 0.0 0.03
07 08:55 N 17 16.09 A Few Clouds FEW300 15.8 11.8 77% 76.38 0.0 0.03
07 08:35 N 15 16.09 Fair CLR 15.3 12 81% 76.35 0.0 0.03
07 08:15 N 13 16.09 Fair CLR 14.1 11.6 85% 76.35 0.0 0.03
07 07:55 N 13 14.48 Fair CLR 13.3 12 92% 76.33 0.0 0.03
07 07:35 Vrbl 11 14.48 Fair CLR 12.8 11.7 93% 76.33 0.0 0.03
07 07:15 N 11 16.09 Fair CLR 12 11.8 99% 76.3 0.0
07 06:55 N 9 16.09 Fair CLR 11.2 11.2 12.5 10.5 100% 76.25 0.0 0.05 0.38
07 06:35 N 9 16.09 Fair CLR 10.7 10.7 100% 76.23 0.0 0.03
07 06:15 N 13 16.09 Fair CLR 10.5 10.5 100% 76.25 0.0 0.03
07 05:55 N 13 16.09 Fair CLR 10.7 10.7 100% 76.23 0.0 0.05
07 05:35 N 15 16.09 Fair CLR 11 11 100% 76.23 0.0 0.05
07 05:15 N 15 12.87 Light Rain CLR 11.1 11.1 100% 76.2 0.0 0.03
07 04:55 N 15 12.87 Light Rain CLR 11 11 100% 76.2 0.0 0.05
07 04:35 N 11 12.87 Light Rain CLR 11.1 11.1 100% 76.17 0.0 0.05
07 04:15 N 9 12.87 Light Rain SCT065 11.6 11.6 100% 76.17 0.0 0.03
07 03:55 Vrbl 9 14.48 Light Rain OVC060 11.9 11.9 100% 76.17 0.0 0.08 0.23
07 03:35 Vrbl 9 14.48 Light Rain BKN060 11.9 11.9 100% 76.17 0.0 0.05
07 03:15 N 9 14.48 Light Rain BKN055 11.8 11.8 100% 76.2 0.0 0.05
07 02:55 N 11 14.48 Light Rain OVC055 12.1 12.1 100% 76.15 0.0 0.05
07 02:35 N 11 14.48 Light Rain OVC060 12.1 12.1 100% 76.17 0.0 0.05
07 02:15 Vrbl 11 16.09 Overcast OVC060 12.2 12.2 100% 76.17 0.0 0.03
07 01:55 N 6 16.09 Mostly Cloudy SCT060 BKN140 12.2 12 99% 76.2 0.0 0.1
07 01:35 N 11 16.09 Mostly Cloudy FEW100 BKN130 12.2 11.8 97% 76.2 0.0 0.08
07 01:15 N 11 16.09 Overcast BKN100 OVC130 12.4 11.9 97% 76.17 0.0 0.05
07 00:55 N 13 16.09 Overcast BKN100 OVC130 12.4 12.1 12.7 12.2 98% 76.2 0.0 0.08 0.66
07 00:35 N 13 16.09 Overcast OVC100 12.4 12.2 99% 76.2 0.0 0.08
07 00:15 N 11 16.09 Overcast OVC100 12.4 12.3 99% 76.17 0.0 0.03
06 23:55 N 15 16.09 Overcast OVC100 12.4 12.4 100% 76.17 0.0 0.1
06 23:35 N 15 16.09 Overcast OVC100 12.4 12.4 100% 76.12 0.0 0.08
06 23:15 NE 15 16.09 Overcast FEW090 OVC110 12.4 12.4 100% 76.15 0.0 0.05
06 22:55 N 17 16.09 Mostly Cloudy SCT070 SCT090 BKN110 12.3 12.3 100% 76.15 0.0 0.1
06 22:35 N 15 16.09 Mostly Cloudy FEW034 BKN075 BKN100 12.3 12.3 100% 76.17 0.0 0.08
06 22:15 N 15 14.48 Light Rain FEW031 BKN120 12.5 12.4 99% 76.2 0.0 0.05
06 21:55 N 13 16.09 Mostly Cloudy FEW019 BKN120 12.4 12.4 100% 76.2 0.0 0.13 0.38
06 21:35 N 17 16.09 Mostly Cloudy SCT017 BKN130 12.5 12.4 99% 76.15 0.0 0.1
06 21:15 NE 17 16.09 Mostly Cloudy BKN017 12.5 12.2 98% 76.15 0.0 0.05
06 20:55 N 19 16.09 Overcast OVC014 12.5 12.5 100% 76.1 0.0 0.13
06 20:35 N 19 16.09 Overcast OVC014 12.5 12.4 99% 76.1 0.0 0.1
06 20:15 N 19 14.48 Overcast OVC013 12.6 12.6 100% 76.07 0.0 0.05
06 19:55 N 17 16.09 Overcast OVC012 12.6 12.6 100% 76.07 0.0 0.13
06 19:35 N 19 16.09 Overcast OVC012 12.7 12.6 99% 76.07 0.0 0.1
06 19:15 N 19 14.48 Overcast OVC013 12.7 12.7 100% 76.07 0.0 0.05
06 18:55 N 22 16.09 Overcast OVC012 12.7 12.6 13.3 12.2 99% 76.07 0.0 0.13 0.84
06 18:35 N 22 14.48 Overcast OVC011 12.7 12.7 100% 76.1 0.0 0.1
06 18:15 N 19 14.48 Overcast OVC011 12.9 12.9 100% 76.1 0.0 0.05
06 17:55 N 20 16.09 Overcast OVC012 13 12.9 99% 76.05 0.0 0.15
06 17:35 N 22 12.87 Overcast OVC013 13.2 13 99% 76.02 0.0 0.1
06 17:15 NE 17 14.48 Overcast OVC013 13.1 13 99% 76.02 0.0 0.08
06 16:55 NE 24 12.87 Overcast OVC011 13 13 100% 75.95 0.0 0.13
06 16:35 N 17 11.27 Overcast BKN009 OVC013 13 13 100% 76 0.0 0.1
06 16:15 NE 20 14.48 Overcast BKN010 OVC080 13.1 13.1 100% 76 0.0 0.05
06 15:55 N 19 9.66 Light Rain Fog/Mist FEW008 OVC075 12.6 12.6 100% 76.07 0.0 0.15 0.43
06 15:35 N 20 8.05 Light Rain Fog/Mist FEW009 OVC070 12.4 12.4 100% 76.12 0.0 0.1
06 15:15 N 17 8.05 Light Rain Fog/Mist FEW044 OVC065 12.3 12.3 100% 76.1 0.0 0.05
06 14:55 N 17 6.44 Light Rain Fog/Mist FEW012 SCT016 BKN036 OVC046 12.4 12.4 100% 76.17 0.0 0.13
06 14:35 N 19 9.66 Light Rain Fog/Mist OVC015 12.4 12.4 100% 76.17 0.0 0.1
06 14:15 N 20 9.66 Light Rain Fog/Mist OVC013 12.6 12.6 100% 76.2 0.0 0.05
Date Time (cdt) Wind (kph) Vis. (km) Weather Sky Cond. Air Dwpt Max. Min. Relative Humidity Wind Chill (°C) Heat Index (°C) altimeter (cm) sea level (mb) 1 hr 3 hr 6 hr
6 hour
Temperature (ºC) Pressure Precipitation (cm)